@Jacob_Sim's ATC Tracking Thread Open CLOSED

Welcome Infinite Flight Community!

This is my ATC tracking thread for my ATC sessions. Whenever I am controlling I will change the title from closed to open and leave a comment below.

I would appreciate constructive feedback left below, if you need to talk about anything else please PM to avoid cluttering this thread - Thanks.

1 Like

Sunday 16 September - YBBN Brisbane International Airport Now Closed

Open for 40 minutes (01:10-01:50 ZULU)
Airport: YBBN (Brisbane Airport)
Session: Global Training Server

NOTAM: Intersection Departures Ok, no aircraft restrictions RWY 19 & 14 in use

METAR: YBBN 160030Z 21013KT 160V220 9999 FEW045 BKN160 25/04 Q1012 FM0300 14018G28KT 9999 SCT035

This is my home airport and my favourite

3 Likes

Have you finished already?

Yes sorry, three minutes ago. Keep a look out though because I will be open again throughout the week

1 Like

Monday 08 October - YBWW Toowoomba Wellcamp Airport Now Closed

Open for 50 minutes (22:45-23:35 ZULU) (0945-1035 AEST)
Airport: YBWW (Toowoomba Airport)
Session: Global Training Server

NOTAM: Intersection Departures Ok for small aircraft, no aircraft larger than 747-8, RWY 12 in use

METAR: Unavailable

1 Like

Good work, unfortunately I have to go now. That was fun! I wish more people could come down since you’re open for 20 more minutes.

1 Like

This topic was automatically closed 90 days after the last reply. New replies are no longer allowed.